Central Il Rgnl Arpt at Bloomington-Normal Airport
KBMI : now visible

Airfield :











YOU CAN JOIN US ON...

 
LOGIN :

Register | Disclaimer

   EN    FR    IT 

 









Legend :    VFR   Marginal VFR   IFR   Intensive IFR   Very Intensive IFR
Visi :
Ceiling :
>= 8 km
>= 3000ft
5 to 8 km
1000 to 3000 ft
1500m to 5 km
500 to 1000 ft
800 to 1500m
200 to 500 ft
< 800m
< 200 ft
Symbols :   Thunderstorms  Fog  Heavy snow  Heavy precipitations  Wind > 20 kt






- Airport Elevation : 871 ft
- IATA code : BMI


KBMI - Central Il Rgnl Arpt at Bloomington-Normal

CURRENT METAR :
  • 081956Z 21011KT 10SM FEW028 SCT043 29/22 A3011 RMK AO2 SLP189 T02890222

EXPIRED METARs :
  • 081856Z 18011KT 10SM SCT044 29/22 A3012 RMK AO2 SLP193 T02890217
  • 081756Z 20013KT 10SM FEW041 27/21 A3014 RMK AO2 SLP198 T02720206 10289 20189 56012

TAF KBMI
Valid from the 08 at 18:00 until the 09 at 18:00 UTC


081720Z 0818/0918 20010KT P6SM FEW050 SCT150
FM090400 19008KT P6SM SCT045 BKN200
KZAU FIR / North America



MET'MAP, your aeronautical weather chart ! - Copyright ORBIFLY December 2007 - Disclaimer

ORBIFLY MET'MAP TEAM :

Programming & Development : Alexandra Zaïnal
Concept & original design : Baudouin d'Aumeries
Assistance for programming : Marc-Olivier Méhu
Technical & hardware support : Manuel Goepfert

Contact : metmap@orbifly.com




SOURCES & CREDITS :

   NOAA       Earth
Advisory